Terminal Aerodrome Forecast
Issued by NWS

Home | Current Version | Previous Version | Graphics & Text | Print | Product List | Glossary On
Versions: 1 2 3 4 5 6 7 8 9 10 11 12 13 14
000
FTUS45 KGGW 242332 AAA
TAFOLF
TAF AMD
KOLF 242332Z 2500/2524 07011KT P6SM OVC018
     FM251600 06011KT P6SM BKN040
     FM252100 06010KT P6SM BKN070=

USA.gov is the U.S. government's official web portal to all federal, state and local government web resources and services.